Quarteles, New Mexico
Current Conditions -  °F | °C
As of 9:35 PM on Monday 20 Oct 2014 (Local Time) from KLAM Reporting Station
Scattered Clouds Scattered Clouds  
Wind Chill: 53°   Ceiling: Unl
Heat Index: 53°   Visibility: 10mi
Dew Point: 41°   Wind: 7mph
Humidity: 65%   Direction: 220°SW
Pressure: 30.27"   Gusts: NA
Location:  35.9775°N, 106.158°W
Report Text: KLAM 210335Z AUTO 22006KT 10SM SCT065 12/05 A3027 RMK AO2 T01150052
Loading
Personal Weather Stations






























Interactive Weather Map
Tropical Storm Tracking
New forecast layout! Learn more

10-Day Weather Forecast

Advertisements
Track Severe Weather on mobile